sensor_id;sensor_type;location;lat;lon;timestamp;pressure;altitude;pressure_sealevel;temperature;humidity
74242;BME280;62599;49.146;10.426;2023-02-28T00:00:31;96419.50;;;-5.30;93.60
74242;BME280;62599;49.146;10.426;2023-02-28T00:02:57;96426.13;;;-5.28;93.45
74242;BME280;62599;49.146;10.426;2023-02-28T00:05:24;96426.31;;;-5.23;93.49
74242;BME280;62599;49.146;10.426;2023-02-28T00:07:50;96421.59;;;-5.14;93.66
74242;BME280;62599;49.146;10.426;2023-02-28T00:10:19;96408.66;;;-5.16;93.72
74242;BME280;62599;49.146;10.426;2023-02-28T00:12:47;96420.81;;;-5.15;93.95
74242;BME280;62599;49.146;10.426;2023-02-28T00:15:12;96416.56;;;-5.16;93.91
74242;BME280;62599;49.146;10.426;2023-02-28T00:17:38;96409.69;;;-5.17;93.89
74242;BME280;62599;49.146;10.426;2023-02-28T00:20:04;96417.16;;;-5.14;94.15
74242;BME280;62599;49.146;10.426;2023-02-28T00:22:33;96417.94;;;-5.13;94.21
74242;BME280;62599;49.146;10.426;2023-02-28T00:24:59;96411.91;;;-5.14;94.33
74242;BME280;62599;49.146;10.426;2023-02-28T00:27:24;96409.06;;;-5.12;94.56
74242;BME280;62599;49.146;10.426;2023-02-28T00:29:49;96399.81;;;-5.15;95.11
74242;BME280;62599;49.146;10.426;2023-02-28T00:32:15;96414.75;;;-5.15;94.80
74242;BME280;62599;49.146;10.426;2023-02-28T00:34:40;96415.13;;;-5.12;94.94
74242;BME280;62599;49.146;10.426;2023-02-28T00:37:08;96406.22;;;-5.11;94.44
74242;BME280;62599;49.146;10.426;2023-02-28T00:39:35;96415.44;;;-5.01;94.82
74242;BME280;62599;49.146;10.426;2023-02-28T00:42:02;96397.78;;;-4.94;94.13
74242;BME280;62599;49.146;10.426;2023-02-28T00:44:29;96405.66;;;-4.94;94.07
74242;BME280;62599;49.146;10.426;2023-02-28T00:46:55;96404.69;;;-4.93;94.02
74242;BME280;62599;49.146;10.426;2023-02-28T00:49:21;96402.44;;;-4.90;93.90
74242;BME280;62599;49.146;10.426;2023-02-28T00:51:47;96402.81;;;-4.86;94.26
74242;BME280;62599;49.146;10.426;2023-02-28T00:54:12;96397.31;;;-4.85;94.58
74242;BME280;62599;49.146;10.426;2023-02-28T00:56:38;96399.13;;;-4.85;93.78
74242;BME280;62599;49.146;10.426;2023-02-28T00:59:03;96396.88;;;-4.81;93.95
74242;BME280;62599;49.146;10.426;2023-02-28T01:01:28;96389.81;;;-4.81;94.22
74242;BME280;62599;49.146;10.426;2023-02-28T01:03:54;96394.47;;;-4.83;94.21
74242;BME280;62599;49.146;10.426;2023-02-28T01:06:19;96392.66;;;-4.82;94.09
74242;BME280;62599;49.146;10.426;2023-02-28T01:08:44;96395.28;;;-4.82;93.80
74242;BME280;62599;49.146;10.426;2023-02-28T01:11:11;96400.75;;;-4.84;94.27
74242;BME280;62599;49.146;10.426;2023-02-28T01:13:37;96390.66;;;-4.87;94.15
74242;BME280;62599;49.146;10.426;2023-02-28T01:16:03;96401.16;;;-4.87;94.85
74242;BME280;62599;49.146;10.426;2023-02-28T01:18:28;96389.00;;;-4.81;95.05
74242;BME280;62599;49.146;10.426;2023-02-28T01:20:54;96391.63;;;-4.81;95.05
74242;BME280;62599;49.146;10.426;2023-02-28T01:23:23;96387.03;;;-4.86;94.63
74242;BME280;62599;49.146;10.426;2023-02-28T01:25:50;96384.19;;;-4.85;95.46
74242;BME280;62599;49.146;10.426;2023-02-28T01:28:15;96390.59;;;-4.80;95.49
74242;BME280;62599;49.146;10.426;2023-02-28T01:30:41;96385.34;;;-4.80;95.49
74242;BME280;62599;49.146;10.426;2023-02-28T01:33:06;96384.78;;;-4.82;95.74
74242;BME280;62599;49.146;10.426;2023-02-28T01:35:33;96386.16;;;-4.80;95.77
74242;BME280;62599;49.146;10.426;2023-02-28T01:37:59;96382.28;;;-4.77;96.26
74242;BME280;62599;49.146;10.426;2023-02-28T01:40:24;96379.28;;;-4.81;95.98
74242;BME280;62599;49.146;10.426;2023-02-28T01:42:50;96381.28;;;-4.76;96.56
74242;BME280;62599;49.146;10.426;2023-02-28T01:45:31;96382.28;;;-4.77;95.99
74242;BME280;62599;49.146;10.426;2023-02-28T01:48:06;96379.66;;;-4.77;96.81
74242;BME280;62599;49.146;10.426;2023-02-28T01:50:36;96379.44;;;-4.76;96.56
74242;BME280;62599;49.146;10.426;2023-02-28T01:53:07;96382.66;;;-4.74;96.28
74242;BME280;62599;49.146;10.426;2023-02-28T01:55:34;96379.25;;;-4.74;97.15
74242;BME280;62599;49.146;10.426;2023-02-28T01:58:02;96368.31;;;-4.71;96.04
74242;BME280;62599;49.146;10.426;2023-02-28T02:00:29;96376.38;;;-4.73;96.96
74242;BME280;62599;49.146;10.426;2023-02-28T02:03:06;96375.81;;;-4.75;97.37
74242;BME280;62599;49.146;10.426;2023-02-28T02:05:36;96374.94;;;-4.69;96.43
74242;BME280;62599;49.146;10.426;2023-02-28T02:08:04;96371.50;;;-4.69;96.33
74242;BME280;62599;49.146;10.426;2023-02-28T02:10:36;96371.13;;;-4.73;97.33
74242;BME280;62599;49.146;10.426;2023-02-28T02:13:19;96367.34;;;-4.77;97.13
74242;BME280;62599;49.146;10.426;2023-02-28T02:16:13;96366.75;;;-4.79;97.35
74242;BME280;62599;49.146;10.426;2023-02-28T02:18:52;96370.81;;;-4.83;97.24
74242;BME280;62599;49.146;10.426;2023-02-28T02:26:58;96362.22;;;-4.90;97.95
74242;BME280;62599;49.146;10.426;2023-02-28T02:29:52;96358.19;;;-4.93;98.69
74242;BME280;62599;49.146;10.426;2023-02-28T02:32:49;96358.88;;;-4.97;99.21
74242;BME280;62599;49.146;10.426;2023-02-28T02:40:53;96366.13;;;-4.99;99.05
74242;BME280;62599;49.146;10.426;2023-02-28T02:43:38;96361.53;;;-5.04;99.56
74242;BME280;62599;49.146;10.426;2023-02-28T02:46:16;96358.31;;;-5.06;99.84
74242;BME280;62599;49.146;10.426;2023-02-28T02:48:43;96363.00;;;-5.08;99.42
74242;BME280;62599;49.146;10.426;2023-02-28T02:51:14;96365.44;;;-5.13;99.79
74242;BME280;62599;49.146;10.426;2023-02-28T02:53:47;96362.25;;;-5.15;100.00
74242;BME280;62599;49.146;10.426;2023-02-28T02:56:16;96361.00;;;-5.13;100.00
74242;BME280;62599;49.146;10.426;2023-02-28T02:58:43;96361.41;;;-5.16;100.00
74242;BME280;62599;49.146;10.426;2023-02-28T03:01:19;96359.81;;;-5.17;99.96
74242;BME280;62599;49.146;10.426;2023-02-28T03:04:04;96361.41;;;-5.16;100.00
74242;BME280;62599;49.146;10.426;2023-02-28T03:06:31;96370.75;;;-5.20;100.00
74242;BME280;62599;49.146;10.426;2023-02-28T03:08:56;96374.63;;;-5.22;100.00
74242;BME280;62599;49.146;10.426;2023-02-28T03:11:22;96367.97;;;-5.25;100.00
74242;BME280;62599;49.146;10.426;2023-02-28T03:16:32;96371.19;;;-5.23;100.00
74242;BME280;62599;49.146;10.426;2023-02-28T03:19:08;96366.28;;;-5.19;100.00
74242;BME280;62599;49.146;10.426;2023-02-28T03:21:42;96360.25;;;-5.20;100.00
74242;BME280;62599;49.146;10.426;2023-02-28T03:26:58;96364.13;;;-5.22;100.00
74242;BME280;62599;49.146;10.426;2023-02-28T03:29:38;96360.69;;;-5.23;100.00
74242;BME280;62599;49.146;10.426;2023-02-28T03:32:13;96363.53;;;-5.24;100.00
74242;BME280;62599;49.146;10.426;2023-02-28T03:34:51;96359.69;;;-5.22;100.00
74242;BME280;62599;49.146;10.426;2023-02-28T03:37:22;96360.09;;;-5.25;100.00
74242;BME280;62599;49.146;10.426;2023-02-28T03:40:00;96351.84;;;-5.28;100.00
74242;BME280;62599;49.146;10.426;2023-02-28T03:42:29;96359.50;;;-5.27;100.00
74242;BME280;62599;49.146;10.426;2023-02-28T03:45:04;96355.88;;;-5.26;100.00
74242;BME280;62599;49.146;10.426;2023-02-28T03:47:38;96358.50;;;-5.26;100.00
74242;BME280;62599;49.146;10.426;2023-02-28T03:50:10;96356.31;;;-5.29;100.00
74242;BME280;62599;49.146;10.426;2023-02-28T03:52:43;96363.56;;;-5.31;100.00
74242;BME280;62599;49.146;10.426;2023-02-28T03:55:11;96374.44;;;-5.27;100.00
74242;BME280;62599;49.146;10.426;2023-02-28T03:57:39;96371.63;;;-5.26;100.00
74242;BME280;62599;49.146;10.426;2023-02-28T04:00:10;96373.66;;;-5.28;100.00
74242;BME280;62599;49.146;10.426;2023-02-28T04:02:37;96361.13;;;-5.26;100.00
74242;BME280;62599;49.146;10.426;2023-02-28T04:05:02;96370.00;;;-5.27;100.00
74242;BME280;62599;49.146;10.426;2023-02-28T04:07:31;96361.13;;;-5.26;100.00
74242;BME280;62599;49.146;10.426;2023-02-28T04:09:57;96374.88;;;-5.30;100.00
74242;BME280;62599;49.146;10.426;2023-02-28T04:12:23;96366.41;;;-5.33;100.00
74242;BME280;62599;49.146;10.426;2023-02-28T04:14:49;96368.63;;;-5.29;100.00
74242;BME280;62599;49.146;10.426;2023-02-28T04:17:15;96376.13;;;-5.33;100.00
74242;BME280;62599;49.146;10.426;2023-02-28T04:19:41;96379.75;;;-5.34;100.00
74242;BME280;62599;49.146;10.426;2023-02-28T04:22:08;96373.53;;;-5.40;100.00
74242;BME280;62599;49.146;10.426;2023-02-28T04:24:34;96372.94;;;-5.42;100.00
74242;BME280;62599;49.146;10.426;2023-02-28T04:26:59;96381.03;;;-5.43;100.00
74242;BME280;62599;49.146;10.426;2023-02-28T04:29:30;96388.72;;;-5.48;100.00
74242;BME280;62599;49.146;10.426;2023-02-28T04:31:57;96382.84;;;-5.44;100.00
74242;BME280;62599;49.146;10.426;2023-02-28T04:34:27;96374.22;;;-5.51;100.00
74242;BME280;62599;49.146;10.426;2023-02-28T04:36:54;96383.84;;;-5.45;100.00
74242;BME280;62599;49.146;10.426;2023-02-28T04:39:23;96376.06;;;-5.51;100.00
74242;BME280;62599;49.146;10.426;2023-02-28T04:41:50;96372.81;;;-5.53;100.00
74242;BME280;62599;49.146;10.426;2023-02-28T04:44:16;96382.47;;;-5.47;100.00
74242;BME280;62599;49.146;10.426;2023-02-28T04:46:43;96376.06;;;-5.51;100.00
74242;BME280;62599;49.146;10.426;2023-02-28T04:49:10;96371.38;;;-5.49;100.00
74242;BME280;62599;49.146;10.426;2023-02-28T04:51:36;96369.19;;;-5.52;100.00
74242;BME280;62599;49.146;10.426;2023-02-28T04:54:02;96379.84;;;-5.47;100.00
74242;BME280;62599;49.146;10.426;2023-02-28T04:56:27;96378.69;;;-5.51;100.00
74242;BME280;62599;49.146;10.426;2023-02-28T04:58:53;96383.75;;;-5.57;100.00
74242;BME280;62599;49.146;10.426;2023-02-28T05:01:29;96379.09;;;-5.54;100.00
74242;BME280;62599;49.146;10.426;2023-02-28T05:03:57;96369.81;;;-5.57;100.00
74242;BME280;62599;49.146;10.426;2023-02-28T05:06:25;96381.53;;;-5.60;100.00
74242;BME280;62599;49.146;10.426;2023-02-28T05:08:52;96380.34;;;-5.64;100.00
74242;BME280;62599;49.146;10.426;2023-02-28T05:11:19;96389.84;;;-5.63;100.00
74242;BME280;62599;49.146;10.426;2023-02-28T05:13:45;96383.59;;;-5.62;100.00
74242;BME280;62599;49.146;10.426;2023-02-28T05:16:10;96396.06;;;-5.57;100.00
74242;BME280;62599;49.146;10.426;2023-02-28T05:18:36;96383.16;;;-5.59;100.00
74242;BME280;62599;49.146;10.426;2023-02-28T05:21:05;96394.47;;;-5.58;100.00
74242;BME280;62599;49.146;10.426;2023-02-28T05:23:30;96393.84;;;-5.60;100.00
74242;BME280;62599;49.146;10.426;2023-02-28T05:25:58;96389.03;;;-5.63;100.00
74242;BME280;62599;49.146;10.426;2023-02-28T05:28:24;96394.28;;;-5.63;100.00
74242;BME280;62599;49.146;10.426;2023-02-28T05:30:49;96400.13;;;-5.61;100.00
74242;BME280;62599;49.146;10.426;2023-02-28T05:33:15;96399.75;;;-5.65;100.00
74242;BME280;62599;49.146;10.426;2023-02-28T05:35:41;96401.97;;;-5.68;100.00
74242;BME280;62599;49.146;10.426;2023-02-28T05:38:08;96403.59;;;-5.67;100.00
74242;BME280;62599;49.146;10.426;2023-02-28T05:40:33;96396.50;;;-5.67;100.00
74242;BME280;62599;49.146;10.426;2023-02-28T05:42:59;96390.84;;;-5.64;100.00
74242;BME280;62599;49.146;10.426;2023-02-28T05:45:24;96381.75;;;-5.61;100.00
74242;BME280;62599;49.146;10.426;2023-02-28T05:47:53;96392.41;;;-5.56;100.00
74242;BME280;62599;49.146;10.426;2023-02-28T05:50:19;96383.53;;;-5.55;100.00
74242;BME280;62599;49.146;10.426;2023-02-28T05:52:49;96391.59;;;-5.57;100.00
74242;BME280;62599;49.146;10.426;2023-02-28T05:55:14;96394.84;;;-5.54;100.00
74242;BME280;62599;49.146;10.426;2023-02-28T05:57:40;96392.00;;;-5.53;100.00
74242;BME280;62599;49.146;10.426;2023-02-28T06:00:06;96392.00;;;-5.53;100.00
74242;BME280;62599;49.146;10.426;2023-02-28T06:02:31;96383.53;;;-5.55;100.00
74242;BME280;62599;49.146;10.426;2023-02-28T06:04:57;96397.47;;;-5.54;100.00
74242;BME280;62599;49.146;10.426;2023-02-28T06:07:22;96392.00;;;-5.53;100.00
74242;BME280;62599;49.146;10.426;2023-02-28T06:09:47;96394.41;;;-5.51;100.00
74242;BME280;62599;49.146;10.426;2023-02-28T06:12:13;96394.81;;;-5.48;100.00
74242;BME280;62599;49.146;10.426;2023-02-28T06:14:38;96408.50;;;-5.46;100.00
74242;BME280;62599;49.146;10.426;2023-02-28T06:17:04;96403.63;;;-5.42;100.00
74242;BME280;62599;49.146;10.426;2023-02-28T06:19:30;96398.38;;;-5.42;100.00
74242;BME280;62599;49.146;10.426;2023-02-28T06:21:56;96403.22;;;-5.39;100.00
74242;BME280;62599;49.146;10.426;2023-02-28T06:24:23;96411.69;;;-5.37;100.00
74242;BME280;62599;49.146;10.426;2023-02-28T06:26:49;96403.81;;;-5.37;100.00
74242;BME280;62599;49.146;10.426;2023-02-28T06:29:15;96412.88;;;-5.33;100.00
74242;BME280;62599;49.146;10.426;2023-02-28T06:31:46;96409.22;;;-5.32;100.00
74242;BME280;62599;49.146;10.426;2023-02-28T06:34:12;96415.56;;;-5.15;100.00
74242;BME280;62599;49.146;10.426;2023-02-28T06:36:40;96414.47;;;-5.07;100.00
74242;BME280;62599;49.146;10.426;2023-02-28T06:39:06;96413.03;;;-5.03;100.00
74242;BME280;62599;49.146;10.426;2023-02-28T06:41:31;96414.00;;;-4.97;100.00
74242;BME280;62599;49.146;10.426;2023-02-28T06:44:04;96417.38;;;-4.90;100.00
74242;BME280;62599;49.146;10.426;2023-02-28T06:46:31;96411.69;;;-4.87;100.00
74242;BME280;62599;49.146;10.426;2023-02-28T06:48:56;96414.06;;;-4.79;100.00
74242;BME280;62599;49.146;10.426;2023-02-28T06:51:22;96410.41;;;-4.78;100.00
74242;BME280;62599;49.146;10.426;2023-02-28T06:53:49;96416.06;;;-4.81;100.00
74242;BME280;62599;49.146;10.426;2023-02-28T06:56:18;96420.72;;;-4.83;100.00
74242;BME280;62599;49.146;10.426;2023-02-28T06:58:49;96425.56;;;-4.80;100.00
74242;BME280;62599;49.146;10.426;2023-02-28T07:01:16;96431.78;;;-4.74;100.00
74242;BME280;62599;49.146;10.426;2023-02-28T07:03:45;96428.50;;;-4.70;100.00
74242;BME280;62599;49.146;10.426;2023-02-28T07:06:11;96428.31;;;-4.68;100.00
74242;BME280;62599;49.146;10.426;2023-02-28T07:08:37;96429.66;;;-4.66;100.00
74242;BME280;62599;49.146;10.426;2023-02-28T07:11:03;96429.25;;;-4.63;100.00
74242;BME280;62599;49.146;10.426;2023-02-28T07:13:29;96432.84;;;-4.57;100.00
74242;BME280;62599;49.146;10.426;2023-02-28T07:15:55;96437.88;;;-4.55;100.00
74242;BME280;62599;49.146;10.426;2023-02-28T07:18:20;96433.59;;;-4.50;100.00
74242;BME280;62599;49.146;10.426;2023-02-28T07:20:46;96438.53;;;-4.42;99.78
74242;BME280;62599;49.146;10.426;2023-02-28T07:23:11;96437.88;;;-4.37;99.95
74242;BME280;62599;49.146;10.426;2023-02-28T07:25:36;96440.59;;;-4.25;99.34
74242;BME280;62599;49.146;10.426;2023-02-28T07:28:02;96447.75;;;-4.14;98.72
74242;BME280;62599;49.146;10.426;2023-02-28T07:30:27;96449.75;;;-4.09;98.02
74242;BME280;62599;49.146;10.426;2023-02-28T07:32:52;96450.03;;;-3.99;97.71
74242;BME280;62599;49.146;10.426;2023-02-28T07:35:21;96448.69;;;-3.90;97.90
74242;BME280;62599;49.146;10.426;2023-02-28T07:37:47;96440.84;;;-3.78;97.64
74242;BME280;62599;49.146;10.426;2023-02-28T07:40:12;96442.03;;;-3.74;95.95
74242;BME280;62599;49.146;10.426;2023-02-28T07:42:39;96448.09;;;-3.74;95.77
74242;BME280;62599;49.146;10.426;2023-02-28T07:45:06;96444.94;;;-3.64;96.57
74242;BME280;62599;49.146;10.426;2023-02-28T07:47:31;96448.16;;;-3.62;96.10
74242;BME280;62599;49.146;10.426;2023-02-28T07:49:57;96447.25;;;-3.56;95.07
74242;BME280;62599;49.146;10.426;2023-02-28T07:52:23;96450.03;;;-3.51;93.29
74242;BME280;62599;49.146;10.426;2023-02-28T07:54:49;96442.50;;;-3.47;92.83
74242;BME280;62599;49.146;10.426;2023-02-28T07:57:15;96447.75;;;-3.47;92.84
74242;BME280;62599;49.146;10.426;2023-02-28T07:59:41;96444.59;;;-3.37;91.72
74242;BME280;62599;49.146;10.426;2023-02-28T08:02:06;96449.09;;;-3.26;91.55
74242;BME280;62599;49.146;10.426;2023-02-28T08:04:32;96450.59;;;-3.19;91.62
74242;BME280;62599;49.146;10.426;2023-02-28T08:06:58;96454.16;;;-3.13;91.05
74242;BME280;62599;49.146;10.426;2023-02-28T08:09:23;96456.84;;;-3.01;89.21
74242;BME280;62599;49.146;10.426;2023-02-28T08:11:49;96467.16;;;-2.88;89.66
74242;BME280;62599;49.146;10.426;2023-02-28T08:14:14;96463.53;;;-2.75;86.89
74242;BME280;62599;49.146;10.426;2023-02-28T08:16:40;96468.00;;;-2.64;87.57
74242;BME280;62599;49.146;10.426;2023-02-28T08:19:05;96476.94;;;-2.53;86.87
74242;BME280;62599;49.146;10.426;2023-02-28T08:21:30;96463.88;;;-2.36;84.58
74242;BME280;62599;49.146;10.426;2023-02-28T08:23:56;96464.00;;;-2.31;83.75
74242;BME280;62599;49.146;10.426;2023-02-28T08:26:22;96460.88;;;-2.16;83.51
74242;BME280;62599;49.146;10.426;2023-02-28T08:28:47;96463.28;;;-2.03;81.26
74242;BME280;62599;49.146;10.426;2023-02-28T08:31:15;96461.44;;;-2.03;82.11
74242;BME280;62599;49.146;10.426;2023-02-28T08:33:41;96457.72;;;-1.90;82.28
74242;BME280;62599;49.146;10.426;2023-02-28T08:36:08;96462.56;;;-1.87;81.79
74242;BME280;62599;49.146;10.426;2023-02-28T08:38:34;96454.50;;;-1.80;79.76
74242;BME280;62599;49.146;10.426;2023-02-28T08:41:06;96450.56;;;-1.66;79.47
74242;BME280;62599;49.146;10.426;2023-02-28T08:43:34;96459.28;;;-1.65;79.85
74242;BME280;62599;49.146;10.426;2023-02-28T08:46:00;96461.75;;;-1.47;78.64
74242;BME280;62599;49.146;10.426;2023-02-28T08:48:27;96459.69;;;-1.45;79.28
74242;BME280;62599;49.146;10.426;2023-02-28T08:51:07;96459.31;;;-1.37;78.33
74242;BME280;62599;49.146;10.426;2023-02-28T08:53:35;96450.53;;;-1.26;78.79
74242;BME280;62599;49.146;10.426;2023-02-28T08:56:04;96440.81;;;-1.20;78.58
74242;BME280;62599;49.146;10.426;2023-02-28T08:58:30;96451.72;;;-1.33;76.71
74242;BME280;62599;49.146;10.426;2023-02-28T09:00:55;96448.16;;;-1.39;75.83
74242;BME280;62599;49.146;10.426;2023-02-28T09:03:22;96451.41;;;-1.20;77.49
74242;BME280;62599;49.146;10.426;2023-02-28T09:05:57;96449.91;;;-0.99;75.42
74242;BME280;62599;49.146;10.426;2023-02-28T09:08:25;96460.75;;;-0.84;75.35
74242;BME280;62599;49.146;10.426;2023-02-28T09:10:51;96450.66;;;-0.70;74.36
74242;BME280;62599;49.146;10.426;2023-02-28T09:13:18;96451.56;;;-0.64;74.82
74242;BME280;62599;49.146;10.426;2023-02-28T09:15:43;96461.88;;;-0.46;75.01
74242;BME280;62599;49.146;10.426;2023-02-28T09:18:09;96456.50;;;-0.34;74.31
74242;BME280;62599;49.146;10.426;2023-02-28T09:20:37;96455.59;;;-0.23;73.44
74242;BME280;62599;49.146;10.426;2023-02-28T09:23:03;96449.34;;;-0.34;72.56
74242;BME280;62599;49.146;10.426;2023-02-28T09:25:28;96454.09;;;-0.36;71.81
74242;BME280;62599;49.146;10.426;2023-02-28T09:27:53;96453.38;;;-0.31;70.77
74242;BME280;62599;49.146;10.426;2023-02-28T09:30:19;96448.94;;;-0.26;69.97
74242;BME280;62599;49.146;10.426;2023-02-28T09:32:44;96454.06;;;-0.19;70.10
74242;BME280;62599;49.146;10.426;2023-02-28T09:35:20;96444.53;;;-0.20;70.47
74242;BME280;62599;49.146;10.426;2023-02-28T09:37:47;96454.47;;;-0.10;70.47
74242;BME280;62599;49.146;10.426;2023-02-28T09:40:13;96448.69;;;-0.07;69.52
74242;BME280;62599;49.146;10.426;2023-02-28T09:42:40;96447.53;;;-0.11;71.50
74242;BME280;62599;49.146;10.426;2023-02-28T09:45:22;96441.91;;;0.02;70.66
74242;BME280;62599;49.146;10.426;2023-02-28T09:47:50;96446.84;;;-0.07;69.37
74242;BME280;62599;49.146;10.426;2023-02-28T09:52:52;96446.59;;;-0.22;68.72
74242;BME280;62599;49.146;10.426;2023-02-28T09:55:24;96447.59;;;-0.28;68.59
74242;BME280;62599;49.146;10.426;2023-02-28T09:57:54;96453.50;;;-0.21;70.62
74242;BME280;62599;49.146;10.426;2023-02-28T10:00:41;96456.31;;;-0.11;69.09
74242;BME280;62599;49.146;10.426;2023-02-28T10:03:28;96449.59;;;0.04;68.19
74242;BME280;62599;49.146;10.426;2023-02-28T10:06:06;96450.28;;;0.16;68.86
74242;BME280;62599;49.146;10.426;2023-02-28T10:08:37;96446.97;;;0.26;69.12
74242;BME280;62599;49.146;10.426;2023-02-28T10:11:10;96454.50;;;0.34;68.98
74242;BME280;62599;49.146;10.426;2023-02-28T10:16:13;96451.41;;;0.42;66.45
74242;BME280;62599;49.146;10.426;2023-02-28T10:18:46;96450.28;;;0.38;67.74
74242;BME280;62599;49.146;10.426;2023-02-28T10:21:35;96453.59;;;0.50;67.05
74242;BME280;62599;49.146;10.426;2023-02-28T10:26:43;96456.44;;;0.65;66.57
74242;BME280;62599;49.146;10.426;2023-02-28T10:29:09;96462.28;;;0.67;64.94
74242;BME280;62599;49.146;10.426;2023-02-28T10:31:35;96458.13;;;1.04;65.36
74242;BME280;62599;49.146;10.426;2023-02-28T10:34:00;96454.31;;;1.22;65.35
74242;BME280;62599;49.146;10.426;2023-02-28T10:36:26;96457.19;;;1.47;64.11
74242;BME280;62599;49.146;10.426;2023-02-28T10:38:53;96461.69;;;1.47;63.48
74242;BME280;62599;49.146;10.426;2023-02-28T10:41:30;96458.28;;;1.51;64.41
74242;BME280;62599;49.146;10.426;2023-02-28T10:44:20;96461.69;;;1.14;63.64
74242;BME280;62599;49.146;10.426;2023-02-28T10:46:46;96465.81;;;1.32;65.41
74242;BME280;62599;49.146;10.426;2023-02-28T10:49:23;96460.00;;;1.73;63.69
74242;BME280;62599;49.146;10.426;2023-02-28T10:51:52;96464.84;;;1.81;61.82
74242;BME280;62599;49.146;10.426;2023-02-28T10:54:23;96464.16;;;1.58;60.48
74242;BME280;62599;49.146;10.426;2023-02-28T10:57:15;96458.28;;;1.51;61.73
74242;BME280;62599;49.146;10.426;2023-02-28T10:59:42;96455.41;;;1.58;62.70
74242;BME280;62599;49.146;10.426;2023-02-28T11:02:43;96455.19;;;1.64;61.84
74242;BME280;62599;49.146;10.426;2023-02-28T11:07:59;96467.97;;;1.35;63.36
74242;BME280;62599;49.146;10.426;2023-02-28T11:10:30;96473.00;;;1.37;62.41
74242;BME280;62599;49.146;10.426;2023-02-28T11:12:57;96468.44;;;1.27;62.72
74242;BME280;62599;49.146;10.426;2023-02-28T11:15:28;96461.81;;;1.30;65.04
74242;BME280;62599;49.146;10.426;2023-02-28T11:17:57;96462.66;;;1.35;63.29
74242;BME280;62599;49.146;10.426;2023-02-28T11:20:25;96467.91;;;1.30;63.60
74242;BME280;62599;49.146;10.426;2023-02-28T11:22:52;96467.31;;;1.23;63.73
74242;BME280;62599;49.146;10.426;2023-02-28T11:25:25;96457.25;;;1.20;64.57
74242;BME280;62599;49.146;10.426;2023-02-28T11:27:54;96460.19;;;1.24;63.35
74242;BME280;62599;49.146;10.426;2023-02-28T11:32:49;96460.03;;;1.40;65.91
74242;BME280;62599;49.146;10.426;2023-02-28T11:35:26;96462.56;;;1.57;64.39
74242;BME280;62599;49.146;10.426;2023-02-28T11:37:52;96458.28;;;1.51;62.69
74242;BME280;62599;49.146;10.426;2023-02-28T11:40:26;96460.34;;;1.44;63.71
74242;BME280;62599;49.146;10.426;2023-02-28T12:04:25;96447.06;;;1.81;63.29
74242;BME280;62599;49.146;10.426;2023-02-28T12:12:55;96457.06;;;1.64;63.61
74242;BME280;62599;49.146;10.426;2023-02-28T12:23:47;96452.50;;;2.02;61.04
74242;BME280;62599;49.146;10.426;2023-02-28T12:29:12;96443.50;;;2.13;61.48
74242;BME280;62599;49.146;10.426;2023-02-28T12:31:44;96445.16;;;2.19;61.12
74242;BME280;62599;49.146;10.426;2023-02-28T12:34:17;96447.13;;;2.49;61.31
74242;BME280;62599;49.146;10.426;2023-02-28T12:36:45;96449.53;;;2.61;59.94
74242;BME280;62599;49.146;10.426;2023-02-28T12:39:16;96444.03;;;2.78;61.35
74242;BME280;62599;49.146;10.426;2023-02-28T12:42:05;96440.81;;;2.76;59.74
74242;BME280;62599;49.146;10.426;2023-02-28T12:44:37;96440.22;;;2.48;59.15
74242;BME280;62599;49.146;10.426;2023-02-28T12:47:13;96444.38;;;2.24;59.22
74242;BME280;62599;49.146;10.426;2023-02-28T13:09:32;96422.19;;;2.71;60.60
74242;BME280;62599;49.146;10.426;2023-02-28T13:11:58;96428.56;;;2.64;59.15
74242;BME280;62599;49.146;10.426;2023-02-28T13:19:26;96423.47;;;2.53;59.27
74242;BME280;62599;49.146;10.426;2023-02-28T13:21:52;96425.88;;;2.54;60.96
74242;BME280;62599;49.146;10.426;2023-02-28T13:24:38;96428.84;;;2.73;60.26
74242;BME280;62599;49.146;10.426;2023-02-28T13:29:35;96424.09;;;2.85;60.28
74242;BME280;62599;49.146;10.426;2023-02-28T13:42:36;96417.13;;;2.64;57.88
74242;BME280;62599;49.146;10.426;2023-02-28T13:47:52;96424.78;;;2.40;58.89
74242;BME280;62599;49.146;10.426;2023-02-28T13:50:40;96420.78;;;2.42;59.42
74242;BME280;62599;49.146;10.426;2023-02-28T13:58:53;96412.56;;;2.44;59.83
74242;BME280;62599;49.146;10.426;2023-02-28T14:01:51;96415.78;;;2.56;59.58
74242;BME280;62599;49.146;10.426;2023-02-28T14:04:56;96414.44;;;2.49;61.04
74242;BME280;62599;49.146;10.426;2023-02-28T14:07:17;96415.41;;;2.32;61.83
74242;BME280;62599;49.146;10.426;2023-02-28T14:09:51;96405.06;;;2.31;62.08
74242;BME280;62599;49.146;10.426;2023-02-28T14:18:14;96401.94;;;2.49;58.72
74242;BME280;62599;49.146;10.426;2023-02-28T14:20:42;96403.41;;;2.14;63.21
74242;BME280;62599;49.146;10.426;2023-02-28T14:31:54;96407.66;;;2.21;62.09
74242;BME280;62599;49.146;10.426;2023-02-28T14:34:30;96402.88;;;2.17;61.01
74242;BME280;62599;49.146;10.426;2023-02-28T14:37:00;96402.34;;;2.21;61.58
74242;BME280;62599;49.146;10.426;2023-02-28T14:39:27;96397.59;;;2.23;61.38
74242;BME280;62599;49.146;10.426;2023-02-28T14:41:56;96405.56;;;2.28;58.75
74242;BME280;62599;49.146;10.426;2023-02-28T14:44:26;96400.25;;;2.28;60.89
74242;BME280;62599;49.146;10.426;2023-02-28T14:46:56;96398.66;;;2.22;60.53
74242;BME280;62599;49.146;10.426;2023-02-28T14:49:43;96398.63;;;2.16;61.40
74242;BME280;62599;49.146;10.426;2023-02-28T14:52:25;96398.66;;;2.22;60.54
74242;BME280;62599;49.146;10.426;2023-02-28T14:54:55;96406.09;;;2.20;59.21
74242;BME280;62599;49.146;10.426;2023-02-28T14:57:26;96410.31;;;2.15;60.03
74242;BME280;62599;49.146;10.426;2023-02-28T15:02:25;96417.47;;;2.10;60.39
74242;BME280;62599;49.146;10.426;2023-02-28T15:04:59;96414.84;;;2.15;61.56
74242;BME280;62599;49.146;10.426;2023-02-28T15:07:25;96408.69;;;2.09;61.57
74242;BME280;62599;49.146;10.426;2023-02-28T15:12:32;96417.44;;;2.05;62.06
74242;BME280;62599;49.146;10.426;2023-02-28T15:14:57;96411.56;;;1.98;62.26